createdAt,value
2023-05-14T00:03:00.230Z,15.98
2023-05-14T00:08:03.788Z,15.93
2023-05-14T00:13:09.551Z,15.91
2023-05-14T00:18:14.182Z,15.84
2023-05-14T00:23:17.977Z,15.82
2023-05-14T00:28:21.929Z,15.76
2023-05-14T00:33:26.689Z,15.72
2023-05-14T00:38:30.716Z,15.68
2023-05-14T00:43:35.042Z,15.63
2023-05-14T00:48:39.846Z,15.59
2023-05-14T00:53:43.129Z,15.56
2023-05-14T00:58:47.138Z,15.56
2023-05-14T01:03:53.528Z,15.58
2023-05-14T01:09:26.152Z,15.57
2023-05-14T01:14:38.981Z,15.52
2023-05-14T01:19:45.730Z,15.56
2023-05-14T01:24:50.934Z,15.54
2023-05-14T01:30:00.979Z,15.50
2023-05-14T01:35:05.390Z,15.47
2023-05-14T01:40:13.197Z,15.49
2023-05-14T01:45:16.900Z,15.49
2023-05-14T01:50:22.012Z,15.51
2023-05-14T01:55:27.064Z,15.47
2023-05-14T02:00:34.063Z,15.46
2023-05-14T02:05:37.372Z,15.42
2023-05-14T02:10:45.920Z,15.45
2023-05-14T02:15:52.008Z,15.43
2023-05-14T02:20:55.607Z,15.46
2023-05-14T02:26:00.226Z,15.45
2023-05-14T02:31:03.656Z,15.35
2023-05-14T02:36:07.323Z,15.43
2023-05-14T02:41:11.864Z,15.41
2023-05-14T02:46:15.202Z,15.37
2023-05-14T02:51:18.850Z,15.33
2023-05-14T02:56:23.671Z,15.26
2023-05-14T03:01:26.930Z,15.25
2023-05-14T03:06:31.341Z,15.26
2023-05-14T03:11:36.033Z,15.18
2023-05-14T03:16:40.163Z,15.15
2023-05-14T03:21:43.496Z,15.16
2023-05-14T03:26:48.136Z,15.14
2023-05-14T03:31:51.587Z,15.14
2023-05-14T03:36:54.882Z,15.10
2023-05-14T03:41:59.820Z,15.08
2023-05-14T03:47:02.986Z,15.05
2023-05-14T03:52:06.302Z,15.05
2023-05-14T03:57:11.026Z,15.08
2023-05-14T04:02:14.251Z,15.05
2023-05-14T04:07:17.519Z,15.06
2023-05-14T04:12:22.461Z,15.07
2023-05-14T04:17:25.798Z,15.10
2023-05-14T04:22:28.979Z,15.12
2023-05-14T04:27:34.904Z,15.10
2023-05-14T04:32:38.282Z,15.01
2023-05-14T04:37:41.950Z,14.96
2023-05-14T04:42:46.747Z,15.09
2023-05-14T04:47:50.128Z,15.18
2023-05-14T04:52:55.904Z,15.36
2023-05-14T04:58:00.591Z,15.55
2023-05-14T05:03:04.194Z,15.77
2023-05-14T05:08:07.573Z,16.32
2023-05-14T05:13:12.176Z,17.62
2023-05-14T05:18:15.596Z,17.35
2023-05-14T05:23:18.803Z,17.36
2023-05-14T05:28:23.543Z,17.76
2023-05-14T05:33:27.067Z,20.31
2023-05-14T05:38:30.394Z,21.90
2023-05-14T05:43:34.944Z,24.14
2023-05-14T05:48:38.138Z,25.27
2023-05-14T05:53:41.373Z,25.69
2023-05-14T05:58:45.987Z,27.34
2023-05-14T06:03:49.328Z,28.82
2023-05-14T06:08:52.736Z,30.76
2023-05-14T06:13:57.468Z,31.65
2023-05-14T06:19:00.647Z,32.59
2023-05-14T06:24:04.115Z,33.29
2023-05-14T06:29:08.791Z,34.00
2023-05-14T06:34:17.283Z,33.94
2023-05-14T06:39:20.486Z,34.82
2023-05-14T06:44:27.156Z,34.20
2023-05-14T06:49:30.497Z,33.15
2023-05-14T06:54:33.676Z,31.10
2023-05-14T06:59:38.379Z,31.76
2023-05-14T07:04:42.167Z,31.26
2023-05-14T07:09:49.007Z,30.47
2023-05-14T07:14:53.747Z,29.49
2023-05-14T07:19:56.960Z,30.25
2023-05-14T07:25:00.248Z,29.59
2023-05-14T07:30:05.191Z,28.73
2023-05-14T07:35:09.441Z,27.90
2023-05-14T07:40:13.112Z,28.12
2023-05-14T07:45:17.865Z,26.95
2023-05-14T07:50:21.257Z,26.44
2023-05-14T07:55:24.788Z,26.34
2023-05-14T08:00:32.074Z,25.93
2023-05-14T08:05:35.379Z,25.38
2023-05-14T08:10:38.837Z,25.32
2023-05-14T08:15:43.501Z,25.02
2023-05-14T08:20:47.229Z,24.68
2023-05-14T08:25:50.398Z,24.24
2023-05-14T08:30:54.999Z,24.37
2023-05-14T08:36:00.599Z,24.26
2023-05-14T08:41:06.692Z,24.34
2023-05-14T08:46:15.232Z,24.34
2023-05-14T08:51:18.452Z,24.04
2023-05-14T08:56:22.042Z,23.72
2023-05-14T09:01:27.255Z,23.63
2023-05-14T09:06:33.092Z,23.66
2023-05-14T09:11:41.615Z,23.39
2023-05-14T09:16:48.295Z,23.48
2023-05-14T09:21:51.749Z,23.23
2023-05-14T09:26:57.385Z,23.22
2023-05-14T09:32:05.718Z,22.93
2023-05-14T09:37:10.585Z,22.73
2023-05-14T09:42:13.784Z,22.75
2023-05-14T09:47:19.025Z,22.93
2023-05-14T09:52:22.281Z,23.07
2023-05-14T09:57:26.885Z,23.11
2023-05-14T10:02:38.274Z,23.30
2023-05-14T10:07:47.682Z,23.30
2023-05-14T10:12:54.580Z,23.46
2023-05-14T10:18:04.776Z,23.34
2023-05-14T10:23:08.231Z,23.14
2023-05-14T10:28:11.917Z,23.03
2023-05-14T10:33:18.536Z,23.15
2023-05-14T10:38:24.499Z,22.93
2023-05-14T10:43:30.994Z,22.97
2023-05-14T10:48:38.016Z,22.92
2023-05-14T10:53:43.352Z,23.03
2023-05-14T10:58:47.404Z,22.95
2023-05-14T11:03:56.112Z,22.87
2023-05-14T11:09:02.008Z,22.92
2023-05-14T11:14:05.321Z,23.29
2023-05-14T11:19:10.193Z,23.33
2023-05-14T11:24:14.691Z,23.23
2023-05-14T11:29:19.177Z,23.34
2023-05-14T11:34:24.064Z,23.52
2023-05-14T11:39:27.305Z,23.38
2023-05-14T11:44:30.422Z,23.04
2023-05-14T11:49:37.521Z,22.68
2023-05-14T11:54:40.814Z,22.59
2023-05-14T11:59:45.036Z,22.39
2023-05-14T12:04:53.294Z,22.27
2023-05-14T12:10:01.974Z,22.06
2023-05-14T12:15:12.812Z,22.07
2023-05-14T12:20:18.524Z,21.95
2023-05-14T12:25:21.791Z,21.80
2023-05-14T12:30:25.270Z,21.45
2023-05-14T12:35:30.609Z,21.36
2023-05-14T12:40:33.873Z,21.31
2023-05-14T12:45:36.983Z,21.23
2023-05-14T12:50:41.840Z,21.34
2023-05-14T12:55:45.183Z,21.11
2023-05-14T13:00:48.654Z,21.04
2023-05-14T13:05:55.151Z,21.06
2023-05-14T13:10:58.809Z,21.06
2023-05-14T13:16:02.181Z,20.84
2023-05-14T13:21:06.930Z,20.62
2023-05-14T13:26:10.131Z,20.65
2023-05-14T13:31:15.907Z,20.76
2023-05-14T13:36:21.146Z,20.78
2023-05-14T13:41:24.484Z,20.81
2023-05-14T13:46:27.720Z,20.89
2023-05-14T13:51:32.544Z,20.79
2023-05-14T13:56:35.905Z,20.82
2023-05-14T14:01:39.192Z,20.77
2023-05-14T14:06:46.711Z,20.93
2023-05-14T14:11:50.143Z,21.06
2023-05-14T14:16:53.415Z,21.06
2023-05-14T14:21:58.176Z,21.18
2023-05-14T14:27:02.479Z,21.27
2023-05-14T14:32:08.067Z,21.40
2023-05-14T14:37:12.933Z,21.50
2023-05-14T14:42:16.150Z,21.58
2023-05-14T14:47:19.432Z,21.53
2023-05-14T14:52:24.641Z,21.57
2023-05-14T14:57:30.140Z,21.63
2023-05-14T15:02:33.640Z,21.55
2023-05-14T15:07:40.683Z,21.36
2023-05-14T15:12:44.578Z,21.43
2023-05-14T15:17:47.993Z,21.41
2023-05-14T15:22:53.970Z,21.45
2023-05-14T15:27:57.179Z,21.43
2023-05-14T15:33:03.127Z,21.48
2023-05-14T15:38:08.366Z,21.31
2023-05-14T15:43:14.205Z,21.39
2023-05-14T15:48:17.738Z,21.31
2023-05-14T15:53:28.116Z,21.25
2023-05-14T15:58:34.049Z,21.18
2023-05-14T16:03:37.552Z,21.08
2023-05-14T16:08:46.402Z,20.93
2023-05-14T16:13:49.934Z,20.98
2023-05-14T16:18:53.083Z,20.99
2023-05-14T16:23:57.772Z,20.94
2023-05-14T16:29:00.987Z,20.89
2023-05-14T16:34:05.974Z,20.82
2023-05-14T16:39:11.598Z,20.76
2023-05-14T16:44:14.838Z,20.72
2023-05-14T16:49:22.355Z,20.71
2023-05-14T16:54:29.957Z,20.68
2023-05-14T16:59:36.436Z,20.58
2023-05-14T17:04:42.331Z,20.53
2023-05-14T17:09:47.148Z,20.49
2023-05-14T17:14:50.481Z,20.45
2023-05-14T17:19:53.996Z,20.32
2023-05-14T17:24:58.724Z,20.28
2023-05-14T17:30:02.290Z,20.24
2023-05-14T17:35:06.633Z,20.21
2023-05-14T17:40:12.530Z,20.08
2023-05-14T17:45:20.789Z,19.87
2023-05-14T17:50:24.327Z,19.70
2023-05-14T17:55:29.070Z,19.55
2023-05-14T18:00:32.546Z,19.42
2023-05-14T18:05:36.165Z,19.34
2023-05-14T18:10:40.849Z,19.26
2023-05-14T18:15:44.435Z,19.20
2023-05-14T18:20:47.859Z,19.12
2023-05-14T18:25:52.630Z,19.04
2023-05-14T18:30:56.160Z,18.96
2023-05-14T18:35:59.810Z,18.94
2023-05-14T18:41:04.565Z,18.91
2023-05-14T18:46:07.968Z,18.89
2023-05-14T18:51:12.480Z,18.80
2023-05-14T18:56:17.175Z,18.77
2023-05-14T19:01:21.280Z,18.71
2023-05-14T19:06:24.913Z,18.65
2023-05-14T19:11:45.175Z,18.61
2023-05-14T19:16:49.392Z,18.52
2023-05-14T19:21:55.004Z,18.44
2023-05-14T19:27:02.663Z,18.41
2023-05-14T19:32:06.933Z,18.35
2023-05-14T19:37:10.234Z,18.29
2023-05-14T19:42:14.843Z,18.23
2023-05-14T19:47:18.226Z,18.17
2023-05-14T19:52:21.642Z,18.11
2023-05-14T19:57:26.637Z,18.04
2023-05-14T20:02:30.213Z,17.99
2023-05-14T20:07:34.107Z,17.93
2023-05-14T20:12:38.945Z,17.86
2023-05-14T20:17:44.943Z,17.79
2023-05-14T20:22:48.244Z,17.70
2023-05-14T20:27:53.481Z,17.60
2023-05-14T20:32:57.517Z,17.49
2023-05-14T20:38:03.605Z,17.37
2023-05-14T20:43:08.275Z,17.26
2023-05-14T20:48:15.133Z,17.16
2023-05-14T20:53:18.385Z,17.08
2023-05-14T20:58:22.992Z,16.99
2023-05-14T21:03:28.116Z,16.88
2023-05-14T21:08:33.078Z,16.79
2023-05-14T21:13:38.298Z,16.72
2023-05-14T21:18:41.669Z,16.64
2023-05-14T21:23:45.046Z,16.54
2023-05-14T21:28:49.973Z,16.48
2023-05-14T21:33:53.566Z,16.41
2023-05-14T21:38:56.781Z,16.37
2023-05-14T21:44:01.397Z,16.35
2023-05-14T21:49:05.052Z,16.29
2023-05-14T21:54:09.069Z,16.20
2023-05-14T21:59:13.770Z,16.13
2023-05-14T22:04:17.802Z,16.06
2023-05-14T22:09:21.210Z,16.00
2023-05-14T22:14:27.453Z,15.93
2023-05-14T22:19:31.346Z,15.85
2023-05-14T22:24:34.935Z,15.83
2023-05-14T22:29:39.524Z,15.80
2023-05-14T22:34:42.696Z,15.77
2023-05-14T22:39:46.084Z,15.73
2023-05-14T22:44:50.746Z,15.69
2023-05-14T22:49:54.096Z,15.60
2023-05-14T22:54:57.298Z,15.50
2023-05-14T23:00:01.914Z,15.48
2023-05-14T23:05:05.833Z,15.44
2023-05-14T23:10:09.697Z,15.37
2023-05-14T23:15:14.468Z,15.33
2023-05-14T23:20:20.442Z,15.24
2023-05-14T23:25:23.814Z,15.19
2023-05-14T23:30:28.536Z,15.13
2023-05-14T23:35:35.300Z,15.05
2023-05-14T23:40:38.847Z,14.97
2023-05-14T23:45:43.671Z,14.90
2023-05-14T23:50:46.827Z,14.82
2023-05-14T23:55:50.562Z,14.75
